sensor_id;sensor_type;location;lat;lon;timestamp;pressure;altitude;pressure_sealevel;temperature;humidity
43814;BME280;29669;55.706;37.656;2023-02-03T00:01:35;99260.41;;;1.74;nan
43814;BME280;29669;55.706;37.656;2023-02-03T00:04:03;99255.28;;;1.74;nan
43814;BME280;29669;55.706;37.656;2023-02-03T00:06:31;99260.66;;;1.71;nan
43814;BME280;29669;55.706;37.656;2023-02-03T00:08:59;99255.88;;;1.67;nan
43814;BME280;29669;55.706;37.656;2023-02-03T00:13:58;99240.09;;;1.62;nan
43814;BME280;29669;55.706;37.656;2023-02-03T00:16:26;99255.09;;;1.66;nan
43814;BME280;29669;55.706;37.656;2023-02-03T00:21:21;99251.69;;;1.66;nan
43814;BME280;29669;55.706;37.656;2023-02-03T00:23:48;99261.13;;;1.65;nan
43814;BME280;29669;55.706;37.656;2023-02-03T00:26:16;99253.69;;;1.62;nan
43814;BME280;29669;55.706;37.656;2023-02-03T00:28:46;99256.47;;;1.59;nan
43814;BME280;29669;55.706;37.656;2023-02-03T00:33:45;99251.81;;;1.53;nan
43814;BME280;29669;55.706;37.656;2023-02-03T00:36:13;99253.81;;;1.50;nan
43814;BME280;29669;55.706;37.656;2023-02-03T00:38:41;99258.84;;;1.51;nan
43814;BME280;29669;55.706;37.656;2023-02-03T00:41:12;99252.06;;;1.50;nan
43814;BME280;29669;55.706;37.656;2023-02-03T00:46:07;99251.59;;;1.56;nan
43814;BME280;29669;55.706;37.656;2023-02-03T00:48:37;99253.91;;;1.59;nan
43814;BME280;29669;55.706;37.656;2023-02-03T00:51:05;99252.53;;;1.55;nan
43814;BME280;29669;55.706;37.656;2023-02-03T00:53:33;99258.34;;;1.57;nan
43814;BME280;29669;55.706;37.656;2023-02-03T00:56:01;99255.78;;;1.57;nan
43814;BME280;29669;55.706;37.656;2023-02-03T00:58:28;99258.81;;;1.62;nan
43814;BME280;29669;55.706;37.656;2023-02-03T01:00:56;99246.94;;;1.61;nan
43814;BME280;29669;55.706;37.656;2023-02-03T01:03:26;99248.69;;;1.61;nan
43814;BME280;29669;55.706;37.656;2023-02-03T01:08:21;99247.31;;;1.57;nan
43814;BME280;29669;55.706;37.656;2023-02-03T01:10:49;99248.22;;;1.56;nan
43814;BME280;29669;55.706;37.656;2023-02-03T01:13:17;99253.00;;;1.60;nan
43814;BME280;29669;55.706;37.656;2023-02-03T01:15:46;99244.16;;;1.53;nan
43814;BME280;29669;55.706;37.656;2023-02-03T01:18:14;99238.00;;;1.56;nan
43814;BME280;29669;55.706;37.656;2023-02-03T01:23:10;99240.91;;;1.62;nan
43814;BME280;29669;55.706;37.656;2023-02-03T01:25:38;99236.00;;;1.59;nan
43814;BME280;29669;55.706;37.656;2023-02-03T01:28:06;99241.81;;;1.61;nan
43814;BME280;29669;55.706;37.656;2023-02-03T01:30:34;99235.66;;;1.64;nan
43814;BME280;29669;55.706;37.656;2023-02-03T01:33:03;99233.44;;;1.59;nan
43814;BME280;29669;55.706;37.656;2023-02-03T01:35:33;99235.78;;;1.62;nan
43814;BME280;29669;55.706;37.656;2023-02-03T01:38:02;99239.03;;;1.64;nan
43814;BME280;29669;55.706;37.656;2023-02-03T01:40:31;99239.03;;;1.64;nan
43814;BME280;29669;55.706;37.656;2023-02-03T01:42:59;99239.59;;;1.68;nan
43814;BME280;29669;55.706;37.656;2023-02-03T01:45:27;99231.00;;;1.69;nan
43814;BME280;29669;55.706;37.656;2023-02-03T01:47:57;99238.19;;;1.75;nan
43814;BME280;29669;55.706;37.656;2023-02-03T01:50:30;99231.81;;;1.69;nan
43814;BME280;29669;55.706;37.656;2023-02-03T01:53:02;99243.66;;;1.70;nan
43814;BME280;29669;55.706;37.656;2023-02-03T02:00:35;99234.25;;;1.71;nan
43814;BME280;29669;55.706;37.656;2023-02-03T02:03:03;99234.25;;;1.71;nan
43814;BME280;29669;55.706;37.656;2023-02-03T02:08:04;99229.47;;;1.77;nan
43814;BME280;29669;55.706;37.656;2023-02-03T02:10:33;99230.16;;;1.79;nan
43814;BME280;29669;55.706;37.656;2023-02-03T02:13:02;99223.28;;;1.80;nan
43814;BME280;29669;55.706;37.656;2023-02-03T02:15:50;99228.03;;;1.84;nan
43814;BME280;29669;55.706;37.656;2023-02-03T02:29:34;99224.53;;;1.85;nan
43814;BME280;29669;55.706;37.656;2023-02-03T02:37:50;99223.53;;;1.77;nan
43814;BME280;29669;55.706;37.656;2023-02-03T02:48:47;99210.75;;;1.77;nan
43814;BME280;29669;55.706;37.656;2023-02-03T02:51:19;99215.03;;;1.76;nan
43814;BME280;29669;55.706;37.656;2023-02-03T02:53:53;99215.84;;;1.77;nan
43814;BME280;29669;55.706;37.656;2023-02-03T02:56:24;99221.91;;;1.76;nan
43814;BME280;29669;55.706;37.656;2023-02-03T02:58:55;99215.28;;;1.73;nan
43814;BME280;29669;55.706;37.656;2023-02-03T03:01:24;99220.63;;;1.70;nan
43814;BME280;29669;55.706;37.656;2023-02-03T03:03:52;99221.84;;;1.66;nan
43814;BME280;29669;55.706;37.656;2023-02-03T03:06:26;99216.94;;;1.63;nan
43814;BME280;29669;55.706;37.656;2023-02-03T03:09:07;99220.44;;;1.62;nan
43814;BME280;29669;55.706;37.656;2023-02-03T03:11:44;99226.03;;;1.56;nan
43814;BME280;29669;55.706;37.656;2023-02-03T03:14:14;99221.84;;;1.55;nan
43814;BME280;29669;55.706;37.656;2023-02-03T03:16:49;99226.47;;;1.61;nan
43814;BME280;29669;55.706;37.656;2023-02-03T03:19:25;99223.13;;;1.61;nan
43814;BME280;29669;55.706;37.656;2023-02-03T03:22:03;99221.84;;;1.66;nan
43814;BME280;29669;55.706;37.656;2023-02-03T03:24:37;99216.59;;;1.68;nan
43814;BME280;29669;55.706;37.656;2023-02-03T03:27:18;99214.34;;;1.74;nan
43814;BME280;29669;55.706;37.656;2023-02-03T03:29:56;99216.56;;;1.79;nan
43814;BME280;29669;55.706;37.656;2023-02-03T03:32:27;99227.00;;;1.87;nan
43814;BME280;29669;55.706;37.656;2023-02-03T03:34:59;99205.72;;;1.86;nan
43814;BME280;29669;55.706;37.656;2023-02-03T03:37:44;99212.66;;;1.96;nan
43814;BME280;29669;55.706;37.656;2023-02-03T03:40:19;99223.78;;;2.06;nan
43814;BME280;29669;55.706;37.656;2023-02-03T03:45:39;99222.41;;;2.02;nan
43814;BME280;29669;55.706;37.656;2023-02-03T03:51:55;99216.81;;;2.08;nan
43814;BME280;29669;55.706;37.656;2023-02-03T03:54:17;99217.22;;;2.13;nan
43814;BME280;29669;55.706;37.656;2023-02-03T03:56:57;99220.75;;;2.12;nan
43814;BME280;29669;55.706;37.656;2023-02-03T04:01:58;99222.78;;;2.18;nan
43814;BME280;29669;55.706;37.656;2023-02-03T04:06:59;99231.06;;;2.21;nan
43814;BME280;29669;55.706;37.656;2023-02-03T04:09:27;99226.28;;;2.17;nan
43814;BME280;29669;55.706;37.656;2023-02-03T04:14:33;99220.22;;;2.18;nan
43814;BME280;29669;55.706;37.656;2023-02-03T04:19:29;99224.09;;;2.12;nan
43814;BME280;29669;55.706;37.656;2023-02-03T04:21:58;99221.66;;;2.11;nan
43814;BME280;29669;55.706;37.656;2023-02-03T04:24:25;99220.84;;;2.10;nan
43814;BME280;29669;55.706;37.656;2023-02-03T04:26:54;99225.88;;;2.12;nan
43814;BME280;29669;55.706;37.656;2023-02-03T04:29:21;99224.91;;;2.13;nan
43814;BME280;29669;55.706;37.656;2023-02-03T04:31:49;99223.75;;;2.17;nan
43814;BME280;29669;55.706;37.656;2023-02-03T04:36:44;99230.25;;;2.21;nan
43814;BME280;29669;55.706;37.656;2023-02-03T04:39:11;99224.16;;;2.22;nan
43814;BME280;29669;55.706;37.656;2023-02-03T04:41:39;99220.34;;;2.16;nan
43814;BME280;29669;55.706;37.656;2023-02-03T04:44:06;99223.03;;;2.15;nan
43814;BME280;29669;55.706;37.656;2023-02-03T04:46:34;99233.97;;;2.17;nan
43814;BME280;29669;55.706;37.656;2023-02-03T04:49:01;99230.25;;;2.21;nan
43814;BME280;29669;55.706;37.656;2023-02-03T04:53:56;99224.50;;;2.28;nan
43814;BME280;29669;55.706;37.656;2023-02-03T04:56:23;99224.50;;;2.28;nan
43814;BME280;29669;55.706;37.656;2023-02-03T04:58:51;99223.19;;;2.34;nan
43814;BME280;29669;55.706;37.656;2023-02-03T05:01:18;99228.88;;;2.37;nan
43814;BME280;29669;55.706;37.656;2023-02-03T05:03:46;99223.63;;;2.39;nan
43814;BME280;29669;55.706;37.656;2023-02-03T05:06:13;99230.25;;;2.41;nan
43814;BME280;29669;55.706;37.656;2023-02-03T05:08:41;99216.25;;;2.45;nan
43814;BME280;29669;55.706;37.656;2023-02-03T05:11:08;99228.13;;;2.46;nan
43814;BME280;29669;55.706;37.656;2023-02-03T05:13:36;99230.25;;;2.41;nan
43814;BME280;29669;55.706;37.656;2023-02-03T05:16:03;99235.19;;;2.33;nan
43814;BME280;29669;55.706;37.656;2023-02-03T05:18:31;99225.06;;;2.32;nan
43814;BME280;29669;55.706;37.656;2023-02-03T05:20:59;99233.31;;;2.35;nan
43814;BME280;29669;55.706;37.656;2023-02-03T05:23:26;99234.00;;;2.37;nan
43814;BME280;29669;55.706;37.656;2023-02-03T05:25:54;99221.31;;;2.36;nan
43814;BME280;29669;55.706;37.656;2023-02-03T05:30:48;99221.38;;;2.45;nan
43814;BME280;29669;55.706;37.656;2023-02-03T05:33:16;99219.75;;;2.44;nan
43814;BME280;29669;55.706;37.656;2023-02-03T05:35:43;99224.06;;;2.44;nan
43814;BME280;29669;55.706;37.656;2023-02-03T05:38:11;99218.00;;;2.45;nan
43814;BME280;29669;55.706;37.656;2023-02-03T05:40:38;99219.25;;;2.50;nan
43814;BME280;29669;55.706;37.656;2023-02-03T05:46:02;99221.25;;;2.47;nan
43814;BME280;29669;55.706;37.656;2023-02-03T05:48:32;99232.69;;;2.43;nan
43814;BME280;29669;55.706;37.656;2023-02-03T05:51:00;99236.06;;;2.43;nan
43814;BME280;29669;55.706;37.656;2023-02-03T05:58:24;99231.94;;;2.52;nan
43814;BME280;29669;55.706;37.656;2023-02-03T06:00:52;99232.50;;;2.55;nan
43814;BME280;29669;55.706;37.656;2023-02-03T06:05:46;99231.19;;;2.61;nan
43814;BME280;29669;55.706;37.656;2023-02-03T06:10:42;99241.19;;;2.64;nan
43814;BME280;29669;55.706;37.656;2023-02-03T06:13:11;99230.94;;;2.64;nan
43814;BME280;29669;55.706;37.656;2023-02-03T06:15:39;99231.34;;;2.69;nan
43814;BME280;29669;55.706;37.656;2023-02-03T06:18:09;99242.06;;;2.74;nan
43814;BME280;29669;55.706;37.656;2023-02-03T06:20:37;99235.63;;;2.79;nan
43814;BME280;29669;55.706;37.656;2023-02-03T06:23:04;99235.63;;;2.79;nan
43814;BME280;29669;55.706;37.656;2023-02-03T06:25:32;99239.78;;;2.80;nan
43814;BME280;29669;55.706;37.656;2023-02-03T06:27:59;99242.47;;;2.79;nan
43814;BME280;29669;55.706;37.656;2023-02-03T06:30:27;99242.47;;;2.79;nan
43814;BME280;29669;55.706;37.656;2023-02-03T06:32:55;99242.66;;;2.87;nan
43814;BME280;29669;55.706;37.656;2023-02-03T06:35:22;99239.16;;;2.88;nan
43814;BME280;29669;55.706;37.656;2023-02-03T06:37:50;99236.22;;;2.93;nan
43814;BME280;29669;55.706;37.656;2023-02-03T06:40:17;99237.03;;;2.93;nan
43814;BME280;29669;55.706;37.656;2023-02-03T06:42:46;99237.31;;;3.00;nan
43814;BME280;29669;55.706;37.656;2023-02-03T06:45:14;99239.25;;;3.07;nan
43814;BME280;29669;55.706;37.656;2023-02-03T06:47:42;99238.88;;;3.12;nan
43814;BME280;29669;55.706;37.656;2023-02-03T06:50:12;99237.69;;;3.16;nan
43814;BME280;29669;55.706;37.656;2023-02-03T06:52:41;99241.34;;;3.23;nan
43814;BME280;29669;55.706;37.656;2023-02-03T06:55:09;99241.88;;;3.26;nan
43814;BME280;29669;55.706;37.656;2023-02-03T06:57:44;99241.25;;;3.34;nan
43814;BME280;29669;55.706;37.656;2023-02-03T07:00:16;99239.63;;;3.33;nan
43814;BME280;29669;55.706;37.656;2023-02-03T07:02:51;99243.13;;;3.32;nan
43814;BME280;29669;55.706;37.656;2023-02-03T07:05:19;99236.63;;;3.28;nan
43814;BME280;29669;55.706;37.656;2023-02-03T17:19:45;99199.50;;;2.92;nan
43814;BME280;29669;55.706;37.656;2023-02-03T17:26:51;99196.06;;;3.03;nan
43814;BME280;29669;55.706;37.656;2023-02-03T17:29:20;99214.81;;;3.03;nan
43814;BME280;29669;55.706;37.656;2023-02-03T17:31:47;99216.69;;;3.01;nan
43814;BME280;29669;55.706;37.656;2023-02-03T17:39:10;99205.69;;;2.80;nan
43814;BME280;29669;55.706;37.656;2023-02-03T17:41:55;99219.00;;;2.74;nan
43814;BME280;29669;55.706;37.656;2023-02-03T17:47:39;99230.63;;;2.57;nan
43814;BME280;29669;55.706;37.656;2023-02-03T17:50:31;99224.88;;;2.44;nan
43814;BME280;29669;55.706;37.656;2023-02-03T17:53:16;99232.94;;;2.40;nan
43814;BME280;29669;55.706;37.656;2023-02-03T17:55:48;99233.06;;;2.38;nan
43814;BME280;29669;55.706;37.656;2023-02-03T17:58:16;99234.31;;;2.44;nan
43814;BME280;29669;55.706;37.656;2023-02-03T18:00:44;99231.75;;;2.44;nan
43814;BME280;29669;55.706;37.656;2023-02-03T18:03:11;99233.75;;;2.40;nan
43814;BME280;29669;55.706;37.656;2023-02-03T18:08:15;99237.78;;;2.22;nan
43814;BME280;29669;55.706;37.656;2023-02-03T18:10:48;99238.53;;;2.13;nan
43814;BME280;29669;55.706;37.656;2023-02-03T18:13:16;99240.28;;;2.13;nan
43814;BME280;29669;55.706;37.656;2023-02-03T18:15:44;99244.09;;;2.18;nan
43814;BME280;29669;55.706;37.656;2023-02-03T18:18:14;99244.91;;;2.19;nan
43814;BME280;29669;55.706;37.656;2023-02-03T18:20:42;99246.91;;;2.15;nan
43814;BME280;29669;55.706;37.656;2023-02-03T18:23:09;99247.25;;;2.11;nan
43814;BME280;29669;55.706;37.656;2023-02-03T18:25:37;99242.41;;;2.08;nan
43814;BME280;29669;55.706;37.656;2023-02-03T18:28:04;99248.56;;;2.05;nan
43814;BME280;29669;55.706;37.656;2023-02-03T18:30:32;99250.56;;;2.02;nan
43814;BME280;29669;55.706;37.656;2023-02-03T18:33:00;99255.19;;;2.08;nan
43814;BME280;29669;55.706;37.656;2023-02-03T18:35:28;99254.03;;;2.12;nan
43814;BME280;29669;55.706;37.656;2023-02-03T18:40:23;99256.75;;;2.20;nan
43814;BME280;29669;55.706;37.656;2023-02-03T18:42:54;99253.28;;;2.21;nan
43814;BME280;29669;55.706;37.656;2023-02-03T18:45:22;99261.41;;;2.26;nan
43814;BME280;29669;55.706;37.656;2023-02-03T18:47:50;99267.34;;;2.26;nan
43814;BME280;29669;55.706;37.656;2023-02-03T18:50:17;99251.53;;;2.21;nan
43814;BME280;29669;55.706;37.656;2023-02-03T18:52:45;99267.78;;;2.31;nan
43814;BME280;29669;55.706;37.656;2023-02-03T18:57:40;99256.75;;;2.31;nan
43814;BME280;29669;55.706;37.656;2023-02-03T19:00:08;99262.56;;;2.33;nan
43814;BME280;29669;55.706;37.656;2023-02-03T19:05:03;99266.38;;;2.38;nan
43814;BME280;29669;55.706;37.656;2023-02-03T19:07:32;99270.97;;;2.44;nan
43814;BME280;29669;55.706;37.656;2023-02-03T19:09:59;99265.75;;;2.46;nan
43814;BME280;29669;55.706;37.656;2023-02-03T19:14:56;99274.47;;;2.43;nan
43814;BME280;29669;55.706;37.656;2023-02-03T19:17:24;99275.53;;;2.41;nan
43814;BME280;29669;55.706;37.656;2023-02-03T19:19:52;99265.84;;;2.44;nan
43814;BME280;29669;55.706;37.656;2023-02-03T19:22:19;99271.78;;;2.45;nan
43814;BME280;29669;55.706;37.656;2023-02-03T19:24:49;99263.88;;;2.48;nan
43814;BME280;29669;55.706;37.656;2023-02-03T19:27:17;99271.28;;;2.51;nan
43814;BME280;29669;55.706;37.656;2023-02-03T19:29:44;99275.66;;;2.60;nan
43814;BME280;29669;55.706;37.656;2023-02-03T19:32:15;99280.03;;;2.69;nan
43814;BME280;29669;55.706;37.656;2023-02-03T19:34:43;99271.44;;;2.70;nan
43814;BME280;29669;55.706;37.656;2023-02-03T19:37:11;99276.06;;;2.76;nan
43814;BME280;29669;55.706;37.656;2023-02-03T19:39:42;99277.53;;;2.78;nan
43814;BME280;29669;55.706;37.656;2023-02-03T19:42:11;99289.31;;;2.81;nan
43814;BME280;29669;55.706;37.656;2023-02-03T19:44:40;99280.22;;;2.77;nan
43814;BME280;29669;55.706;37.656;2023-02-03T19:47:10;99281.19;;;2.76;nan
43814;BME280;29669;55.706;37.656;2023-02-03T19:52:05;99294.69;;;2.78;nan
43814;BME280;29669;55.706;37.656;2023-02-03T19:54:35;99283.97;;;2.73;nan
43814;BME280;29669;55.706;37.656;2023-02-03T19:57:02;99292.63;;;2.72;nan
43814;BME280;29669;55.706;37.656;2023-02-03T20:01:57;99294.91;;;2.75;nan
43814;BME280;29669;55.706;37.656;2023-02-03T20:04:35;99294.78;;;2.76;nan
43814;BME280;29669;55.706;37.656;2023-02-03T20:07:03;99303.06;;;2.80;nan
43814;BME280;29669;55.706;37.656;2023-02-03T20:09:30;99307.78;;;2.84;nan
43814;BME280;29669;55.706;37.656;2023-02-03T20:11:58;99301.16;;;2.82;nan
43814;BME280;29669;55.706;37.656;2023-02-03T20:14:26;99299.28;;;2.84;nan
43814;BME280;29669;55.706;37.656;2023-02-03T20:16:54;99312.09;;;2.84;nan
43814;BME280;29669;55.706;37.656;2023-02-03T20:19:22;99301.41;;;2.79;nan
43814;BME280;29669;55.706;37.656;2023-02-03T20:21:49;99313.69;;;2.75;nan
43814;BME280;29669;55.706;37.656;2023-02-03T20:24:17;99313.13;;;2.72;nan
43814;BME280;29669;55.706;37.656;2023-02-03T20:26:45;99312.44;;;2.70;nan
43814;BME280;29669;55.706;37.656;2023-02-03T20:29:12;99312.66;;;2.67;nan
43814;BME280;29669;55.706;37.656;2023-02-03T20:31:40;99317.78;;;2.67;nan
43814;BME280;29669;55.706;37.656;2023-02-03T20:39:03;99325.28;;;2.59;nan
43814;BME280;29669;55.706;37.656;2023-02-03T20:43:58;99321.47;;;2.53;nan
43814;BME280;29669;55.706;37.656;2023-02-03T20:46:26;99323.69;;;2.47;nan
43814;BME280;29669;55.706;37.656;2023-02-03T20:48:53;99332.44;;;2.44;nan
43814;BME280;29669;55.706;37.656;2023-02-03T20:51:22;99334.13;;;2.34;nan
43814;BME280;29669;55.706;37.656;2023-02-03T20:53:51;99333.47;;;2.21;nan
43814;BME280;29669;55.706;37.656;2023-02-03T20:56:19;99331.59;;;2.12;nan
43814;BME280;29669;55.706;37.656;2023-02-03T20:58:48;99339.19;;;2.03;nan
43814;BME280;29669;55.706;37.656;2023-02-03T21:01:20;99324.31;;;1.85;nan
43814;BME280;29669;55.706;37.656;2023-02-03T21:03:48;99343.09;;;1.75;nan
43814;BME280;29669;55.706;37.656;2023-02-03T21:06:37;99344.94;;;1.62;nan
43814;BME280;29669;55.706;37.656;2023-02-03T21:09:17;99353.56;;;1.61;nan
43814;BME280;29669;55.706;37.656;2023-02-03T21:11:45;99355.31;;;1.60;nan
43814;BME280;29669;55.706;37.656;2023-02-03T21:14:31;99351.34;;;1.67;nan
43814;BME280;29669;55.706;37.656;2023-02-03T21:22:18;99365.75;;;1.90;nan
43814;BME280;29669;55.706;37.656;2023-02-03T21:24:50;99366.31;;;1.94;nan
43814;BME280;29669;55.706;37.656;2023-02-03T21:29:56;99372.13;;;2.07;nan
43814;BME280;29669;55.706;37.656;2023-02-03T21:32:37;99371.78;;;2.12;nan
43814;BME280;29669;55.706;37.656;2023-02-03T21:35:35;99371.97;;;2.20;nan
43814;BME280;29669;55.706;37.656;2023-02-03T21:38:27;99375.69;;;2.27;nan
43814;BME280;29669;55.706;37.656;2023-02-03T21:40:58;99375.47;;;2.19;nan
43814;BME280;29669;55.706;37.656;2023-02-03T21:43:28;99373.16;;;2.16;nan
43814;BME280;29669;55.706;37.656;2023-02-03T21:45:59;99371.41;;;2.16;nan
43814;BME280;29669;55.706;37.656;2023-02-03T21:48:37;99373.75;;;2.19;nan
43814;BME280;29669;55.706;37.656;2023-02-03T21:51:19;99380.25;;;2.23;nan
43814;BME280;29669;55.706;37.656;2023-02-03T21:53:53;99372.09;;;2.18;nan
43814;BME280;29669;55.706;37.656;2023-02-03T21:56:33;99377.56;;;2.25;nan
43814;BME280;29669;55.706;37.656;2023-02-03T21:59:02;99370.09;;;2.22;nan
43814;BME280;29669;55.706;37.656;2023-02-03T22:01:34;99373.16;;;2.16;nan
43814;BME280;29669;55.706;37.656;2023-02-03T22:04:03;99374.34;;;2.12;nan
43814;BME280;29669;55.706;37.656;2023-02-03T22:06:51;99381.53;;;2.07;nan
43814;BME280;29669;55.706;37.656;2023-02-03T22:09:23;99385.97;;;2.05;nan
43814;BME280;29669;55.706;37.656;2023-02-03T22:11:51;99387.81;;;2.03;nan
43814;BME280;29669;55.706;37.656;2023-02-03T22:16:49;99392.72;;;2.06;nan
43814;BME280;29669;55.706;37.656;2023-02-03T22:21:44;99377.25;;;2.07;nan
43814;BME280;29669;55.706;37.656;2023-02-03T22:24:14;99386.78;;;2.05;nan
43814;BME280;29669;55.706;37.656;2023-02-03T22:26:41;99385.88;;;2.06;nan
43814;BME280;29669;55.706;37.656;2023-02-03T22:29:10;99393.28;;;2.09;nan
43814;BME280;29669;55.706;37.656;2023-02-03T22:31:39;99380.16;;;2.14;nan
43814;BME280;29669;55.706;37.656;2023-02-03T22:34:12;99385.03;;;2.17;nan
43814;BME280;29669;55.706;37.656;2023-02-03T22:36:41;99393.41;;;2.19;nan
43814;BME280;29669;55.706;37.656;2023-02-03T22:39:09;99381.50;;;2.18;nan
43814;BME280;29669;55.706;37.656;2023-02-03T22:44:04;99393.63;;;2.27;nan
43814;BME280;29669;55.706;37.656;2023-02-03T22:46:32;99396.19;;;2.27;nan
43814;BME280;29669;55.706;37.656;2023-02-03T22:49:00;99388.25;;;2.30;nan
43814;BME280;29669;55.706;37.656;2023-02-03T22:51:27;99393.03;;;2.34;nan
43814;BME280;29669;55.706;37.656;2023-02-03T22:53:55;99395.47;;;2.36;nan
43814;BME280;29669;55.706;37.656;2023-02-03T22:56:22;99404.66;;;2.38;nan
43814;BME280;29669;55.706;37.656;2023-02-03T22:58:50;99391.25;;;2.35;nan
43814;BME280;29669;55.706;37.656;2023-02-03T23:01:18;99403.59;;;2.41;nan
43814;BME280;29669;55.706;37.656;2023-02-03T23:03:45;99402.66;;;2.42;nan
43814;BME280;29669;55.706;37.656;2023-02-03T23:06:13;99406.97;;;2.41;nan
43814;BME280;29669;55.706;37.656;2023-02-03T23:08:41;99410.56;;;2.39;nan
43814;BME280;29669;55.706;37.656;2023-02-03T23:11:08;99408.97;;;2.38;nan
43814;BME280;29669;55.706;37.656;2023-02-03T23:13:36;99413.81;;;2.41;nan
43814;BME280;29669;55.706;37.656;2023-02-03T23:16:04;99396.16;;;2.38;nan
43814;BME280;29669;55.706;37.656;2023-02-03T23:18:32;99410.09;;;2.45;nan
43814;BME280;29669;55.706;37.656;2023-02-03T23:20:59;99409.19;;;2.46;nan
43814;BME280;29669;55.706;37.656;2023-02-03T23:23:27;99411.75;;;2.46;nan
43814;BME280;29669;55.706;37.656;2023-02-03T23:25:54;99410.91;;;2.45;nan
43814;BME280;29669;55.706;37.656;2023-02-03T23:28:22;99400.81;;;2.44;nan
43814;BME280;29669;55.706;37.656;2023-02-03T23:30:50;99407.78;;;2.42;nan
43814;BME280;29669;55.706;37.656;2023-02-03T23:33:18;99412.78;;;2.43;nan
43814;BME280;29669;55.706;37.656;2023-02-03T23:35:46;99411.13;;;2.42;nan
43814;BME280;29669;55.706;37.656;2023-02-03T23:38:16;99406.16;;;2.41;nan
43814;BME280;29669;55.706;37.656;2023-02-03T23:43:11;99414.41;;;2.44;nan
43814;BME280;29669;55.706;37.656;2023-02-03T23:55:29;99421.03;;;2.47;nan
43814;BME280;29669;55.706;37.656;2023-02-03T23:57:57;99416.03;;;2.45;nan
